createdAt,value
2017-06-12T00:00:10.405Z,21.34
2017-06-12T00:01:10.402Z,21.27
2017-06-12T00:02:10.402Z,21.34
2017-06-12T00:03:10.422Z,21.27
2017-06-12T00:04:10.399Z,21.38
2017-06-12T00:05:10.403Z,21.24
2017-06-12T00:06:10.096Z,21.42
2017-06-12T00:07:10.396Z,21.24
2017-06-12T00:08:09.797Z,21.25
2017-06-12T00:09:10.399Z,21.34
2017-06-12T00:10:10.404Z,21.38
2017-06-12T00:11:10.397Z,21.34
2017-06-12T00:12:10.394Z,21.38
2017-06-12T00:13:10.391Z,21.35
2017-06-12T00:14:10.392Z,21.38
2017-06-12T00:15:10.390Z,21.4
2017-06-12T00:16:10.391Z,21.34
2017-06-12T00:17:10.387Z,21.32
2017-06-12T00:18:10.389Z,21.34
2017-06-12T00:19:10.389Z,21.28
2017-06-12T00:20:10.385Z,21.37
2017-06-12T00:21:10.405Z,21.34
2017-06-12T00:22:10.383Z,21.38
2017-06-12T00:23:10.385Z,21.35
2017-06-12T00:24:10.382Z,21.43
2017-06-12T00:25:10.380Z,21.38
2017-06-12T00:26:10.381Z,21.38
2017-06-12T00:27:10.382Z,21.32
2017-06-12T00:28:10.385Z,21.35
2017-06-12T00:29:10.378Z,21.24
2017-06-12T00:30:10.074Z,21.28
2017-06-12T00:31:10.377Z,21.22
2017-06-12T00:32:10.374Z,21.27
2017-06-12T00:33:10.371Z,21.32
2017-06-12T00:34:10.372Z,21.22
2017-06-12T00:35:10.403Z,21.28
2017-06-12T00:36:10.067Z,21.24
2017-06-12T00:37:10.070Z,21.31
2017-06-12T00:38:10.368Z,21.27
2017-06-12T00:39:10.367Z,21.29
2017-06-12T00:40:10.367Z,21.29
2017-06-12T00:41:10.366Z,21.32
2017-06-12T00:42:10.064Z,21.35
2017-06-12T00:43:10.394Z,21.35
2017-06-12T00:44:10.361Z,21.29
2017-06-12T00:45:10.364Z,21.35
2017-06-12T00:46:10.360Z,21.32
2017-06-12T00:47:10.367Z,21.4
2017-06-12T00:48:10.362Z,21.28
2017-06-12T00:49:10.358Z,21.34
2017-06-12T00:50:10.359Z,21.37
2017-06-12T00:51:10.355Z,21.4
2017-06-12T00:52:10.355Z,21.25
2017-06-12T00:53:10.359Z,21.31
2017-06-12T00:54:10.049Z,21.25
2017-06-12T00:55:10.355Z,21.38
2017-06-12T00:56:10.351Z,21.38
2017-06-12T00:57:10.049Z,21.31
2017-06-12T00:58:10.048Z,21.28
2017-06-12T00:59:10.353Z,21.32
2017-06-12T01:00:10.350Z,21.19
2017-06-12T01:01:10.347Z,21.22
2017-06-12T01:02:10.347Z,21.14
2017-06-12T01:03:10.343Z,21.21
2017-06-12T01:04:10.346Z,21.12
2017-06-12T01:05:10.345Z,21.21
2017-06-12T01:06:10.341Z,21.16
2017-06-12T01:07:10.342Z,21.14
2017-06-12T01:08:10.036Z,21.12
2017-06-12T01:09:10.341Z,21.24
2017-06-12T01:10:10.339Z,21.12
2017-06-12T01:11:10.339Z,21.14
2017-06-12T01:12:10.338Z,21.16
2017-06-12T01:13:10.336Z,21.13
2017-06-12T01:14:10.333Z,21.16
2017-06-12T01:15:10.338Z,21.14
2017-06-12T01:16:10.332Z,21.16
2017-06-12T01:17:10.331Z,21.19
2017-06-12T01:18:10.329Z,21.16
2017-06-12T01:19:10.328Z,21.13
2017-06-12T01:20:10.348Z,21.19
2017-06-12T01:21:10.326Z,21.21
2017-06-12T01:22:10.023Z,21.14
2017-06-12T01:23:10.331Z,21.17
2017-06-12T01:24:10.324Z,21.19
2017-06-12T01:25:10.323Z,21.13
2017-06-12T01:26:10.321Z,21.17
2017-06-12T01:27:10.323Z,21.17
2017-06-12T01:28:10.318Z,21.12
2017-06-12T01:29:10.318Z,21.09
2017-06-12T01:30:10.317Z,21.16
2017-06-12T01:31:10.320Z,21.07
2017-06-12T01:32:10.014Z,21.09
2017-06-12T01:33:10.314Z,21.06
2017-06-12T01:34:10.313Z,21.04
2017-06-12T01:35:10.311Z,21.03
2017-06-12T01:36:10.007Z,20.99
2017-06-12T01:37:10.314Z,21.04
2017-06-12T01:38:10.309Z,20.99
2017-06-12T01:39:10.312Z,21.04
2017-06-12T01:40:10.308Z,21.01
2017-06-12T01:41:10.308Z,20.98
2017-06-12T01:42:10.305Z,20.97
2017-06-12T01:43:10.004Z,21.06
2017-06-12T01:44:10.304Z,20.97
2017-06-12T01:45:10.302Z,20.99
2017-06-12T01:46:10.300Z,20.97
2017-06-12T01:47:10.301Z,20.95
2017-06-12T01:48:10.299Z,21.03
2017-06-12T01:49:10.299Z,21.01
2017-06-12T01:50:10.297Z,21.04
2017-06-12T01:51:10.295Z,21.07
2017-06-12T01:52:09.991Z,21.09
2017-06-12T01:53:10.293Z,20.97
2017-06-12T01:54:10.292Z,21.07
2017-06-12T01:55:10.290Z,20.97
2017-06-12T01:56:09.984Z,20.97
2017-06-12T01:57:10.289Z,21.01
2017-06-12T01:58:09.982Z,21.09
2017-06-12T01:59:10.287Z,20.98
2017-06-12T02:00:09.981Z,21.01
2017-06-12T02:01:10.286Z,20.99
2017-06-12T02:02:10.285Z,21.01
2017-06-12T02:03:10.280Z,21.04
2017-06-12T02:04:10.280Z,20.99
2017-06-12T02:05:10.277Z,20.99
2017-06-12T02:06:10.278Z,21.04
2017-06-12T02:07:10.277Z,20.97
2017-06-12T02:08:09.970Z,20.97
2017-06-12T02:09:10.274Z,20.99
2017-06-12T02:10:10.274Z,21.03
2017-06-12T02:11:10.270Z,20.99
2017-06-12T02:12:10.271Z,21.07
2017-06-12T02:13:10.269Z,20.98
2017-06-12T02:14:09.966Z,20.97
2017-06-12T02:15:10.265Z,20.99
2017-06-12T02:16:10.265Z,20.98
2017-06-12T02:17:09.960Z,21.01
2017-06-12T02:18:09.959Z,21.01
2017-06-12T02:19:10.262Z,20.95
2017-06-12T02:20:09.956Z,20.97
2017-06-12T02:21:10.260Z,20.89
2017-06-12T02:22:09.956Z,20.88
2017-06-12T02:23:10.262Z,20.98
2017-06-12T02:24:10.254Z,20.91
2017-06-12T02:25:10.253Z,20.87
2017-06-12T02:26:09.949Z,20.91
2017-06-12T02:27:10.252Z,20.85
2017-06-12T02:28:10.254Z,20.84
2017-06-12T02:29:10.262Z,20.8
2017-06-12T02:30:10.249Z,20.84
2017-06-12T02:31:10.247Z,20.76
2017-06-12T02:32:09.942Z,20.84
2017-06-12T02:33:10.247Z,20.84
2017-06-12T02:34:10.243Z,20.84
2017-06-12T02:35:10.243Z,20.85
2017-06-12T02:36:09.634Z,20.77
2017-06-12T02:37:10.241Z,20.77
2017-06-12T02:38:10.240Z,20.82
2017-06-12T02:39:10.236Z,20.85
2017-06-12T02:40:10.236Z,20.87
2017-06-12T02:41:10.234Z,20.69
2017-06-12T02:42:10.235Z,20.7
2017-06-12T02:43:09.929Z,20.7
2017-06-12T02:44:09.928Z,20.7
2017-06-12T02:45:09.924Z,20.67
2017-06-12T02:46:10.227Z,20.69
2017-06-12T02:47:10.231Z,20.67
2017-06-12T02:48:10.222Z,20.66
2017-06-12T02:49:10.223Z,20.66
2017-06-12T02:50:10.231Z,20.66
2017-06-12T02:51:10.224Z,20.69
2017-06-12T02:52:09.915Z,20.59
2017-06-12T02:53:10.216Z,20.59
2017-06-12T02:54:10.221Z,20.57
2017-06-12T02:55:10.214Z,20.64
2017-06-12T02:56:10.218Z,20.57
2017-06-12T02:57:09.910Z,20.61
2017-06-12T02:58:10.213Z,20.64
2017-06-12T02:59:09.907Z,20.61
2017-06-12T03:00:09.607Z,20.61
2017-06-12T03:01:09.598Z,20.69
2017-06-12T03:02:09.904Z,20.72
2017-06-12T03:03:09.902Z,20.69
2017-06-12T03:04:09.900Z,20.76
2017-06-12T03:05:09.897Z,20.7
2017-06-12T03:06:09.897Z,20.73
2017-06-12T03:07:09.895Z,20.7
2017-06-12T03:08:10.197Z,20.73
2017-06-12T03:09:10.196Z,20.79
2017-06-12T03:10:09.890Z,20.73
2017-06-12T03:11:10.195Z,20.8
2017-06-12T03:12:10.191Z,20.72
2017-06-12T03:13:09.890Z,20.82
2017-06-12T03:14:10.189Z,20.85
2017-06-12T03:15:10.187Z,20.8
2017-06-12T03:16:10.185Z,20.82
2017-06-12T03:17:10.184Z,20.77
2017-06-12T03:18:10.183Z,20.91
2017-06-12T03:19:10.184Z,20.87
2017-06-12T03:20:10.184Z,20.88
2017-06-12T03:21:10.177Z,20.94
2017-06-12T03:22:10.177Z,20.98
2017-06-12T03:23:10.177Z,20.97
2017-06-12T03:24:10.177Z,20.94
2017-06-12T03:25:10.176Z,20.98
2017-06-12T03:26:10.174Z,20.99
2017-06-12T03:27:10.173Z,20.97
2017-06-12T03:28:10.170Z,20.98
2017-06-12T03:29:10.171Z,21.03
2017-06-12T03:30:10.170Z,21.07
2017-06-12T03:31:10.171Z,21.06
2017-06-12T03:32:10.166Z,21.1
2017-06-12T03:33:09.862Z,21.07
2017-06-12T03:34:09.862Z,21.07
2017-06-12T03:35:10.163Z,21.04
2017-06-12T03:36:10.164Z,21.16
2017-06-12T03:37:10.159Z,21.16
2017-06-12T03:38:10.158Z,21.16
2017-06-12T03:39:10.156Z,21.16
2017-06-12T03:40:09.857Z,21.13
2017-06-12T03:41:10.156Z,21.19
2017-06-12T03:42:10.155Z,21.17
2017-06-12T03:43:09.849Z,21.22
2017-06-12T03:44:10.157Z,21.16
2017-06-12T03:45:10.151Z,21.22
2017-06-12T03:46:10.151Z,21.21
2017-06-12T03:47:10.149Z,21.21
2017-06-12T03:48:09.845Z,21.19
2017-06-12T03:49:10.147Z,21.27
2017-06-12T03:50:10.146Z,21.32
2017-06-12T03:51:10.142Z,21.24
2017-06-12T03:52:10.144Z,21.35
2017-06-12T03:53:10.141Z,21.35
2017-06-12T03:54:10.141Z,21.37
2017-06-12T03:55:10.146Z,21.4
2017-06-12T03:56:10.163Z,21.46
2017-06-12T03:57:10.140Z,21.58
2017-06-12T03:58:10.142Z,21.52
2017-06-12T03:59:10.138Z,21.56
2017-06-12T04:00:09.834Z,21.64
2017-06-12T04:01:10.141Z,21.64
2017-06-12T04:02:10.235Z,21.71
2017-06-12T04:03:10.133Z,21.75
2017-06-12T04:04:09.833Z,21.75
2017-06-12T04:05:10.133Z,21.86
2017-06-12T04:06:10.132Z,21.84
2017-06-12T04:07:10.130Z,21.88
2017-06-12T04:08:10.130Z,21.96
2017-06-12T04:09:10.127Z,21.9
2017-06-12T04:10:10.127Z,21.98
2017-06-12T04:11:10.127Z,22.09
2017-06-12T04:12:09.822Z,22.03
2017-06-12T04:13:10.133Z,22.12
2017-06-12T04:14:10.125Z,22.27
2017-06-12T04:15:10.126Z,22.25
2017-06-12T04:16:10.130Z,22.42
2017-06-12T04:17:10.126Z,22.49
2017-06-12T04:18:09.821Z,22.54
2017-06-12T04:19:09.821Z,22.68
2017-06-12T04:20:10.124Z,22.77
2017-06-12T04:21:10.123Z,22.9
2017-06-12T04:22:10.121Z,22.83
2017-06-12T04:23:10.124Z,22.92
2017-06-12T04:24:10.124Z,23
2017-06-12T04:25:10.125Z,23.12
2017-06-12T04:26:10.128Z,23.27
2017-06-12T04:27:10.125Z,23.42
2017-06-12T04:28:10.123Z,23.57
2017-06-12T04:29:10.127Z,23.69
2017-06-12T04:30:09.823Z,23.97
2017-06-12T04:31:10.126Z,24.15
2017-06-12T04:32:10.133Z,24.3
2017-06-12T04:33:10.130Z,24.53
2017-06-12T04:34:10.129Z,24.83
2017-06-12T04:35:10.135Z,24.87
2017-06-12T04:36:10.134Z,25.02
2017-06-12T04:37:10.135Z,25.06
2017-06-12T04:38:09.531Z,25.09
2017-06-12T04:39:10.140Z,25.1
2017-06-12T04:40:09.840Z,25.15
2017-06-12T04:41:10.144Z,25.15
2017-06-12T04:42:09.845Z,25.15
2017-06-12T04:43:09.851Z,25.15
2017-06-12T04:44:10.154Z,25.1
2017-06-12T04:45:10.158Z,25.13
2017-06-12T04:46:09.855Z,25.08
2017-06-12T04:47:10.159Z,25.05
2017-06-12T04:48:10.170Z,24.98
2017-06-12T04:49:10.163Z,24.96
2017-06-12T04:50:10.167Z,25.05
2017-06-12T04:51:10.167Z,24.88
2017-06-12T04:52:10.170Z,24.87
2017-06-12T04:53:10.170Z,24.8
2017-06-12T04:54:10.175Z,24.81
2017-06-12T04:55:10.181Z,24.83
2017-06-12T04:56:10.178Z,24.69
2017-06-12T04:57:10.180Z,24.65
2017-06-12T04:58:10.184Z,24.49
2017-06-12T04:59:10.184Z,24.52
2017-06-12T05:00:10.203Z,24.53
2017-06-12T05:01:10.190Z,24.31
2017-06-12T05:02:09.889Z,24.28
2017-06-12T05:03:10.195Z,24.22
2017-06-12T05:04:10.191Z,24.2
2017-06-12T05:05:09.893Z,24.18
2017-06-12T05:06:09.896Z,24.13
2017-06-12T05:07:10.198Z,24.03
2017-06-12T05:08:10.201Z,23.94
2017-06-12T05:09:10.208Z,23.83
2017-06-12T05:10:10.202Z,23.85
2017-06-12T05:11:09.899Z,23.78
2017-06-12T05:12:10.203Z,23.85
2017-06-12T05:13:10.205Z,23.88
2017-06-12T05:14:09.903Z,23.91
2017-06-12T05:15:10.206Z,23.97
2017-06-12T05:16:10.210Z,23.98
2017-06-12T05:17:10.210Z,23.95
2017-06-12T05:18:10.210Z,23.97
2017-06-12T05:19:10.215Z,23.97
2017-06-12T05:20:10.214Z,23.95
2017-06-12T05:21:10.215Z,24
2017-06-12T05:22:09.911Z,24.02
2017-06-12T05:23:10.215Z,23.91
2017-06-12T05:24:09.916Z,23.88
2017-06-12T05:25:09.914Z,23.91
2017-06-12T05:26:09.916Z,23.9
2017-06-12T05:27:10.219Z,23.79
2017-06-12T05:28:10.223Z,23.76
2017-06-12T05:29:10.225Z,23.78
2017-06-12T05:30:09.924Z,23.78
2017-06-12T05:31:10.225Z,23.72
2017-06-12T05:32:10.227Z,23.7
2017-06-12T05:33:10.227Z,23.68
2017-06-12T05:34:10.227Z,23.6
2017-06-12T05:35:09.925Z,23.61
2017-06-12T05:36:10.229Z,23.55
2017-06-12T05:37:09.930Z,23.6
2017-06-12T05:38:10.231Z,23.58
2017-06-12T05:39:10.231Z,23.69
2017-06-12T05:40:10.232Z,23.6
2017-06-12T05:41:10.235Z,23.69
2017-06-12T05:42:10.235Z,23.68
2017-06-12T05:43:10.233Z,23.73
2017-06-12T05:44:09.932Z,23.73
2017-06-12T05:45:10.242Z,23.69
2017-06-12T05:46:09.933Z,23.75
2017-06-12T05:47:10.237Z,23.83
2017-06-12T05:48:10.240Z,23.78
2017-06-12T05:49:10.241Z,23.8
2017-06-12T05:50:09.937Z,23.79
2017-06-12T05:51:10.244Z,23.83
2017-06-12T05:52:10.243Z,23.87
2017-06-12T05:53:10.243Z,23.84
2017-06-12T05:54:10.244Z,23.79
2017-06-12T05:55:10.245Z,23.79
2017-06-12T05:56:10.246Z,23.87
2017-06-12T05:57:10.248Z,23.83
2017-06-12T05:58:09.944Z,23.95
2017-06-12T05:59:10.248Z,23.97
2017-06-12T06:00:09.952Z,24.05
2017-06-12T06:01:10.249Z,24.09
2017-06-12T06:02:09.964Z,24.09
2017-06-12T06:03:10.253Z,24.12
2017-06-12T06:04:10.256Z,24.12
2017-06-12T06:05:10.256Z,24.1
2017-06-12T06:06:10.255Z,24.12
2017-06-12T06:07:10.258Z,24.18
2017-06-12T06:08:10.261Z,24.21
2017-06-12T06:09:10.262Z,24.2
2017-06-12T06:10:10.263Z,24.21
2017-06-12T06:11:10.262Z,24.27
2017-06-12T06:12:10.265Z,24.35
2017-06-12T06:13:10.266Z,24.35
2017-06-12T06:14:10.270Z,24.39
2017-06-12T06:15:10.270Z,24.52
2017-06-12T06:16:10.274Z,24.52
2017-06-12T06:17:10.274Z,24.49
2017-06-12T06:18:10.278Z,24.5
2017-06-12T06:19:10.297Z,24.49
2017-06-12T06:20:10.283Z,24.46
2017-06-12T06:21:10.289Z,24.45
2017-06-12T06:22:10.282Z,24.4
2017-06-12T06:23:10.288Z,24.3
2017-06-12T06:24:10.284Z,24.27
2017-06-12T06:25:10.321Z,24.21
2017-06-12T06:26:10.287Z,24.21
2017-06-12T06:27:10.292Z,24.15
2017-06-12T06:28:10.290Z,24.18
2017-06-12T06:29:10.291Z,24.2
2017-06-12T06:30:09.990Z,24.1
2017-06-12T06:31:10.297Z,24.16
2017-06-12T06:32:10.297Z,24.12
2017-06-12T06:33:10.300Z,24.2
2017-06-12T06:34:09.997Z,24.25
2017-06-12T06:35:10.304Z,24.3
2017-06-12T06:36:10.303Z,24.5
2017-06-12T06:37:10.306Z,24.68
2017-06-12T06:38:10.307Z,24.93
2017-06-12T06:39:10.309Z,25.43
2017-06-12T06:40:10.311Z,25.65
2017-06-12T06:41:10.011Z,25.98
2017-06-12T06:42:10.317Z,26.2
2017-06-12T06:43:10.018Z,26.44
2017-06-12T06:44:10.325Z,26.5
2017-06-12T06:45:10.328Z,26.55
2017-06-12T06:46:10.028Z,26.55
2017-06-12T06:47:10.336Z,26.4
2017-06-12T06:48:10.340Z,26.45
2017-06-12T06:49:10.344Z,26.44
2017-06-12T06:50:10.349Z,26.43
2017-06-12T06:51:10.351Z,26.39
2017-06-12T06:52:10.354Z,26.54
2017-06-12T06:53:10.357Z,26.66
2017-06-12T06:54:10.364Z,26.82
2017-06-12T06:55:10.367Z,27.04
2017-06-12T06:56:10.372Z,26.99
2017-06-12T06:57:10.377Z,27.28
2017-06-12T06:58:10.380Z,27.59
2017-06-12T06:59:10.385Z,27.82
2017-06-12T07:00:10.389Z,28.12
2017-06-12T07:01:10.394Z,28.44
2017-06-12T07:02:10.403Z,28.74
2017-06-12T07:03:10.408Z,29.15
2017-06-12T07:04:10.414Z,29.33
2017-06-12T07:05:10.423Z,29.55
2017-06-12T07:06:10.426Z,29.67
2017-06-12T07:07:10.434Z,29.83
2017-06-12T07:08:10.443Z,29.98
2017-06-12T07:09:10.449Z,30.07
2017-06-12T07:10:10.457Z,30.27
2017-06-12T07:11:10.468Z,30.35
2017-06-12T07:12:10.471Z,30.47
2017-06-12T07:13:10.480Z,30.58
2017-06-12T07:14:10.489Z,30.83
2017-06-12T07:15:10.496Z,31.06
2017-06-12T07:16:10.202Z,31.35
2017-06-12T07:17:10.515Z,31.58
2017-06-12T07:18:10.524Z,31.73
2017-06-12T07:19:10.536Z,31.85
2017-06-12T07:20:10.550Z,31.88
2017-06-12T07:21:10.556Z,31.72
2017-06-12T07:22:10.566Z,31.75
2017-06-12T07:23:10.574Z,31.62
2017-06-12T07:24:10.584Z,31.43
2017-06-12T07:25:10.594Z,31.32
2017-06-12T07:26:10.299Z,31.07
2017-06-12T07:27:10.617Z,30.97
2017-06-12T07:28:10.318Z,30.97
2017-06-12T07:29:10.330Z,30.97
2017-06-12T07:30:10.647Z,30.75
2017-06-12T07:31:10.348Z,30.73
2017-06-12T07:32:10.664Z,30.6
2017-06-12T07:33:10.671Z,30.64
2017-06-12T07:34:10.680Z,30.61
2017-06-12T07:35:10.688Z,30.77
2017-06-12T07:36:10.092Z,30.84
2017-06-12T07:37:10.706Z,30.88
2017-06-12T07:38:10.412Z,30.88
2017-06-12T07:39:10.728Z,30.94
2017-06-12T07:40:10.741Z,30.8
2017-06-12T07:41:10.744Z,30.72
2017-06-12T07:42:10.751Z,30.97
2017-06-12T07:43:10.761Z,31.16
2017-06-12T07:44:10.770Z,31.73
2017-06-12T07:45:10.781Z,32
2017-06-12T07:46:10.789Z,32.38
2017-06-12T07:47:10.802Z,32.57
2017-06-12T07:48:10.509Z,32.55
2017-06-12T07:49:10.822Z,32.56
2017-06-12T07:50:10.831Z,32.65
2017-06-12T07:51:10.847Z,32.75
2017-06-12T07:52:10.854Z,32.5
2017-06-12T07:53:10.866Z,32.6
2017-06-12T07:54:10.874Z,32.67
2017-06-12T07:55:10.888Z,32.78
2017-06-12T07:56:10.901Z,32.96
2017-06-12T07:57:10.606Z,33.35
2017-06-12T07:58:10.618Z,33.61
2017-06-12T07:59:10.935Z,33.81
2017-06-12T08:00:10.643Z,33.95
2017-06-12T08:01:10.654Z,34.08
2017-06-12T08:02:10.670Z,34.21
2017-06-12T08:03:10.982Z,34.42
2017-06-12T08:04:10.697Z,34.59
2017-06-12T08:05:11.010Z,34.75
2017-06-12T08:06:11.023Z,34.78
2017-06-12T08:07:11.037Z,35.03
2017-06-12T08:08:10.748Z,35.22
2017-06-12T08:09:10.760Z,35.47
2017-06-12T08:10:11.076Z,35.59
2017-06-12T08:11:11.091Z,35.6
2017-06-12T08:12:10.802Z,35.8
2017-06-12T08:13:10.815Z,35.93
2017-06-12T08:14:11.136Z,35.77
2017-06-12T08:15:11.149Z,35.81
2017-06-12T08:16:11.164Z,35.78
2017-06-12T08:17:11.177Z,35.59
2017-06-12T08:18:11.193Z,35.56
2017-06-12T08:19:11.208Z,35.52
2017-06-12T08:20:10.922Z,35.52
2017-06-12T08:21:11.240Z,35.58
2017-06-12T08:22:11.254Z,35.68
2017-06-12T08:23:11.272Z,35.72
2017-06-12T08:24:11.288Z,35.93
2017-06-12T08:25:11.302Z,35.99
2017-06-12T08:26:11.316Z,36.22
2017-06-12T08:27:11.337Z,36.43
2017-06-12T08:28:11.347Z,36.56
2017-06-12T08:29:11.365Z,36.53
2017-06-12T08:30:11.380Z,36.64
2017-06-12T08:31:11.099Z,36.68
2017-06-12T08:32:11.417Z,36.64
2017-06-12T08:33:11.432Z,36.66
2017-06-12T08:34:11.454Z,36.73
2017-06-12T08:35:11.464Z,36.56
2017-06-12T08:36:11.478Z,36.32
2017-06-12T08:37:11.597Z,36.07
2017-06-12T08:38:11.511Z,35.75
2017-06-12T08:39:11.528Z,35.56
2017-06-12T08:40:11.547Z,35.37
2017-06-12T08:41:11.557Z,35.06
2017-06-12T08:42:11.570Z,34.97
2017-06-12T08:43:11.585Z,34.73
2017-06-12T08:44:11.595Z,34.46
2017-06-12T08:45:11.608Z,34.05
2017-06-12T08:46:11.620Z,33.68
2017-06-12T08:47:11.633Z,33.29
2017-06-12T08:48:11.647Z,33.04
2017-06-12T08:49:11.659Z,32.99
2017-06-12T08:50:11.669Z,32.84
2017-06-12T08:51:11.680Z,32.79
2017-06-12T08:52:11.703Z,32.6
2017-06-12T08:53:11.708Z,32.45
2017-06-12T08:54:11.716Z,32.28
2017-06-12T08:55:11.727Z,32.15
2017-06-12T08:56:11.438Z,31.95
2017-06-12T08:57:11.751Z,31.78
2017-06-12T08:58:11.462Z,31.51
2017-06-12T08:59:11.773Z,31.35
2017-06-12T09:00:11.482Z,31.17
2017-06-12T09:01:11.795Z,31.12
2017-06-12T09:02:11.813Z,30.92
2017-06-12T09:03:11.818Z,30.76
2017-06-12T09:04:11.834Z,30.75
2017-06-12T09:05:11.839Z,30.53
2017-06-12T09:06:11.855Z,30.37
2017-06-12T09:07:11.860Z,30.31
2017-06-12T09:08:11.869Z,30.19
2017-06-12T09:09:11.880Z,30.13
2017-06-12T09:10:11.893Z,30.11
2017-06-12T09:11:11.901Z,30.13
2017-06-12T09:12:11.911Z,30.08
2017-06-12T09:13:11.916Z,30.07
2017-06-12T09:14:11.928Z,30.07
2017-06-12T09:15:11.936Z,30.2
2017-06-12T09:16:11.944Z,30.19
2017-06-12T09:17:11.654Z,30.16
2017-06-12T09:18:11.966Z,30.11
2017-06-12T09:19:11.973Z,30.1
2017-06-12T09:20:11.976Z,30.17
2017-06-12T09:21:11.991Z,30.15
2017-06-12T09:22:11.388Z,30.07
2017-06-12T09:23:12.009Z,30.15
2017-06-12T09:24:12.012Z,30.13
2017-06-12T09:25:12.023Z,30.22
2017-06-12T09:26:11.725Z,30.22
2017-06-12T09:27:12.037Z,30.16
2017-06-12T09:28:12.044Z,30.1
2017-06-12T09:29:12.052Z,30.04
2017-06-12T09:30:12.062Z,30.04
2017-06-12T09:31:12.079Z,29.94
2017-06-12T09:32:11.775Z,29.86
2017-06-12T09:33:12.087Z,29.8
2017-06-12T09:34:12.094Z,29.83
2017-06-12T09:35:11.799Z,29.79
2017-06-12T09:36:12.109Z,29.7
2017-06-12T09:37:11.813Z,29.71
2017-06-12T09:38:12.127Z,29.7
2017-06-12T09:39:12.132Z,29.6
2017-06-12T09:40:12.140Z,29.49
2017-06-12T09:41:12.142Z,29.53
2017-06-12T09:42:12.151Z,29.33
2017-06-12T09:43:12.162Z,29.34
2017-06-12T09:44:12.167Z,29.27
2017-06-12T09:45:12.209Z,29.15
2017-06-12T09:46:12.185Z,29.11
2017-06-12T09:47:12.190Z,29.06
2017-06-12T09:48:11.890Z,29.04
2017-06-12T09:49:12.203Z,28.92
2017-06-12T09:50:12.208Z,28.78
2017-06-12T09:51:11.913Z,28.77
2017-06-12T09:52:11.918Z,28.64
2017-06-12T09:53:12.229Z,28.58
2017-06-12T09:54:12.236Z,28.46
2017-06-12T09:55:11.942Z,28.39
2017-06-12T09:56:11.946Z,28.19
2017-06-12T09:57:12.254Z,28.21
2017-06-12T09:58:11.956Z,28.06
2017-06-12T09:59:12.267Z,28.07
2017-06-12T10:00:12.273Z,27.88
2017-06-12T10:01:12.278Z,27.81
2017-06-12T10:02:11.982Z,27.74
2017-06-12T10:03:12.295Z,27.51
2017-06-12T10:04:12.295Z,27.4
2017-06-12T10:05:12.302Z,27.19
2017-06-12T10:06:12.305Z,27.12
2017-06-12T10:07:12.313Z,27.03
2017-06-12T10:08:12.318Z,27.09
2017-06-12T10:09:12.332Z,27.1
2017-06-12T10:10:11.722Z,27.12
2017-06-12T10:11:12.030Z,27.18
2017-06-12T10:12:12.042Z,27.24
2017-06-12T10:13:12.344Z,27.28
2017-06-12T10:14:12.060Z,27.19
2017-06-12T10:15:12.356Z,27.12
2017-06-12T10:16:12.361Z,27.06
2017-06-12T10:17:12.369Z,27.03
2017-06-12T10:18:12.405Z,26.88
2017-06-12T10:19:12.375Z,26.69
2017-06-12T10:20:12.380Z,26.43
2017-06-12T10:21:12.387Z,26.36
2017-06-12T10:22:12.387Z,26.28
2017-06-12T10:23:12.394Z,26.21
2017-06-12T10:24:12.398Z,26.06
2017-06-12T10:25:12.405Z,26.02
2017-06-12T10:26:12.406Z,26.07
2017-06-12T10:27:12.115Z,26.07
2017-06-12T10:28:12.417Z,26.07
2017-06-12T10:29:12.424Z,26.15
2017-06-12T10:30:12.427Z,26.25
2017-06-12T10:31:12.127Z,26.33
2017-06-12T10:32:12.134Z,26.32
2017-06-12T10:33:12.438Z,26.39
2017-06-12T10:34:12.444Z,26.32
2017-06-12T10:35:12.144Z,26.29
2017-06-12T10:36:12.450Z,26.13
2017-06-12T10:37:12.155Z,26.07
2017-06-12T10:38:12.462Z,25.99
2017-06-12T10:39:12.466Z,26.02
2017-06-12T10:40:12.472Z,26.02
2017-06-12T10:41:12.168Z,26.07
2017-06-12T10:42:12.483Z,26.02
2017-06-12T10:43:12.179Z,25.99
2017-06-12T10:44:12.180Z,26.09
2017-06-12T10:45:12.186Z,26.02
2017-06-12T10:46:12.192Z,26.09
2017-06-12T10:47:12.498Z,26.15
2017-06-12T10:48:12.504Z,26.17
2017-06-12T10:49:12.505Z,26.06
2017-06-12T10:50:12.510Z,26.06
2017-06-12T10:51:12.211Z,26.13
2017-06-12T10:52:12.522Z,26.26
2017-06-12T10:53:12.519Z,26.39
2017-06-12T10:54:12.526Z,26.39
2017-06-12T10:55:12.226Z,26.58
2017-06-12T10:56:12.229Z,26.62
2017-06-12T10:57:12.539Z,26.52
2017-06-12T10:58:12.538Z,26.63
2017-06-12T10:59:12.243Z,26.54
2017-06-12T11:00:12.549Z,26.55
2017-06-12T11:01:12.252Z,26.52
2017-06-12T11:02:12.252Z,26.45
2017-06-12T11:03:12.562Z,26.47
2017-06-12T11:04:12.569Z,26.36
2017-06-12T11:05:12.569Z,26.45
2017-06-12T11:06:12.573Z,26.39
2017-06-12T11:07:11.973Z,26.25
2017-06-12T11:08:12.581Z,26.25
2017-06-12T11:09:12.588Z,26.23
2017-06-12T11:10:11.984Z,26.21
2017-06-12T11:11:12.597Z,26.2
2017-06-12T11:12:12.596Z,26.15
2017-06-12T11:13:12.602Z,26.2
2017-06-12T11:14:12.603Z,26.15
2017-06-12T11:15:12.654Z,26.02
2017-06-12T11:16:12.615Z,26.15
2017-06-12T11:17:12.616Z,26.17
2017-06-12T11:18:12.623Z,26.12
2017-06-12T11:19:12.623Z,26.12
2017-06-12T11:20:12.629Z,26.15
2017-06-12T11:21:12.325Z,26.17
2017-06-12T11:22:12.636Z,26.21
2017-06-12T11:23:12.638Z,26.36
2017-06-12T11:24:12.341Z,26.4
2017-06-12T11:25:12.644Z,26.39
2017-06-12T11:26:12.650Z,26.4
2017-06-12T11:27:12.655Z,26.44
2017-06-12T11:28:12.658Z,26.51
2017-06-12T11:29:12.356Z,26.63
2017-06-12T11:30:12.360Z,26.63
2017-06-12T11:31:12.665Z,26.82
2017-06-12T11:32:12.671Z,26.91
2017-06-12T11:33:12.674Z,27.03
2017-06-12T11:34:12.679Z,27
2017-06-12T11:35:12.681Z,27
2017-06-12T11:36:12.381Z,27.12
2017-06-12T11:37:12.692Z,27.13
2017-06-12T11:38:12.691Z,27.09
2017-06-12T11:39:12.696Z,27.13
2017-06-12T11:40:12.702Z,27.1
2017-06-12T11:41:12.706Z,27.04
2017-06-12T11:42:12.711Z,26.97
2017-06-12T11:43:12.718Z,26.94
2017-06-12T11:44:12.718Z,27
2017-06-12T11:45:12.723Z,27.04
2017-06-12T11:46:12.726Z,27.19
2017-06-12T11:47:12.738Z,27.24
2017-06-12T11:48:12.736Z,27.49
2017-06-12T11:49:12.768Z,27.47
2017-06-12T11:50:12.746Z,27.47
2017-06-12T11:51:12.753Z,27.57
2017-06-12T11:52:12.757Z,27.55
2017-06-12T11:53:12.761Z,27.62
2017-06-12T11:54:12.767Z,27.67
2017-06-12T11:55:12.774Z,27.74
2017-06-12T11:56:12.773Z,27.87
2017-06-12T11:57:12.476Z,27.97
2017-06-12T11:58:12.482Z,27.99
2017-06-12T11:59:12.788Z,27.96
2017-06-12T12:00:12.794Z,28.07
2017-06-12T12:01:12.800Z,28.15
2017-06-12T12:02:12.804Z,28.27
2017-06-12T12:03:12.811Z,28.37
2017-06-12T12:04:12.819Z,28.51
2017-06-12T12:05:12.819Z,28.49
2017-06-12T12:06:12.527Z,28.54
2017-06-12T12:07:12.526Z,28.52
2017-06-12T12:08:12.533Z,28.64
2017-06-12T12:09:12.845Z,28.7
2017-06-12T12:10:12.243Z,28.64
2017-06-12T12:11:12.858Z,28.7
2017-06-12T12:12:12.863Z,28.68
2017-06-12T12:13:12.867Z,28.66
2017-06-12T12:14:12.907Z,28.61
2017-06-12T12:15:12.881Z,28.56
2017-06-12T12:16:12.883Z,28.52
2017-06-12T12:17:12.890Z,28.44
2017-06-12T12:18:12.894Z,28.36
2017-06-12T12:19:12.900Z,28.27
2017-06-12T12:20:12.905Z,28.15
2017-06-12T12:21:12.911Z,28.15
2017-06-12T12:22:12.915Z,27.99
2017-06-12T12:23:12.924Z,27.96
2017-06-12T12:24:12.928Z,27.88
2017-06-12T12:25:12.656Z,27.81
2017-06-12T12:26:12.940Z,27.72
2017-06-12T12:27:12.946Z,27.79
2017-06-12T12:28:12.954Z,27.65
2017-06-12T12:29:12.953Z,27.59
2017-06-12T12:30:12.657Z,27.43
2017-06-12T12:31:12.967Z,27.29
2017-06-12T12:32:12.671Z,27.17
2017-06-12T12:33:12.672Z,27.17
2017-06-12T12:34:12.675Z,27.07
2017-06-12T12:35:12.987Z,27
2017-06-12T12:36:12.693Z,27
2017-06-12T12:37:12.691Z,27
2017-06-12T12:38:12.698Z,27
2017-06-12T12:39:13.008Z,27
2017-06-12T12:40:12.707Z,27.14
2017-06-12T12:41:13.014Z,27.28
2017-06-12T12:42:13.023Z,27.31
2017-06-12T12:43:13.024Z,27.31
2017-06-12T12:44:12.725Z,27.32
2017-06-12T12:45:12.729Z,27.41
2017-06-12T12:46:13.038Z,27.44
2017-06-12T12:47:13.039Z,27.41
2017-06-12T12:48:12.744Z,27.41
2017-06-12T12:49:13.053Z,27.32
2017-06-12T12:50:12.752Z,27.31
2017-06-12T12:51:12.758Z,27.28
2017-06-12T12:52:13.066Z,27.13
2017-06-12T12:53:12.767Z,27.07
2017-06-12T12:54:12.770Z,27.12
2017-06-12T12:55:13.081Z,27.09